sensor_id;sensor_type;location;lat;lon;timestamp;P1;durP1;ratioP1;P2;durP2;ratioP2
46136;SDS011;31871;49.418;8.752;2022-09-23T00:00:44;5.43;;;2.30;;
46136;SDS011;31871;49.418;8.752;2022-09-23T00:03:11;4.15;;;2.42;;
46136;SDS011;31871;49.418;8.752;2022-09-23T00:05:37;4.57;;;2.22;;
46136;SDS011;31871;49.418;8.752;2022-09-23T00:08:04;5.13;;;2.70;;
46136;SDS011;31871;49.418;8.752;2022-09-23T00:10:31;2.95;;;2.10;;
46136;SDS011;31871;49.418;8.752;2022-09-23T00:12:57;11.30;;;2.50;;
46136;SDS011;31871;49.418;8.752;2022-09-23T00:15:23;8.77;;;2.45;;
46136;SDS011;31871;49.418;8.752;2022-09-23T00:17:52;4.40;;;2.25;;
46136;SDS011;31871;49.418;8.752;2022-09-23T00:20:18;4.47;;;2.50;;
46136;SDS011;31871;49.418;8.752;2022-09-23T00:22:44;4.13;;;2.50;;
46136;SDS011;31871;49.418;8.752;2022-09-23T00:25:11;5.68;;;2.50;;
46136;SDS011;31871;49.418;8.752;2022-09-23T00:27:37;7.63;;;2.50;;
46136;SDS011;31871;49.418;8.752;2022-09-23T00:30:04;4.47;;;2.20;;
46136;SDS011;31871;49.418;8.752;2022-09-23T00:32:32;9.95;;;3.08;;
46136;SDS011;31871;49.418;8.752;2022-09-23T00:34:58;4.93;;;2.33;;
46136;SDS011;31871;49.418;8.752;2022-09-23T00:37:24;11.77;;;2.42;;
46136;SDS011;31871;49.418;8.752;2022-09-23T00:39:51;5.50;;;2.25;;
46136;SDS011;31871;49.418;8.752;2022-09-23T00:42:18;8.95;;;2.83;;
46136;SDS011;31871;49.418;8.752;2022-09-23T00:47:32;3.47;;;2.00;;
46136;SDS011;31871;49.418;8.752;2022-09-23T00:52:48;6.07;;;2.70;;
46136;SDS011;31871;49.418;8.752;2022-09-23T00:55:18;6.07;;;2.30;;
46136;SDS011;31871;49.418;8.752;2022-09-23T00:57:50;5.45;;;2.85;;
46136;SDS011;31871;49.418;8.752;2022-09-23T01:00:19;4.78;;;2.20;;
46136;SDS011;31871;49.418;8.752;2022-09-23T01:02:45;4.80;;;2.30;;
46136;SDS011;31871;49.418;8.752;2022-09-23T01:05:11;3.60;;;2.08;;
46136;SDS011;31871;49.418;8.752;2022-09-23T01:07:37;3.67;;;2.30;;
46136;SDS011;31871;49.418;8.752;2022-09-23T01:10:03;4.00;;;2.33;;
46136;SDS011;31871;49.418;8.752;2022-09-23T01:12:37;7.35;;;2.38;;
46136;SDS011;31871;49.418;8.752;2022-09-23T01:15:08;3.05;;;2.13;;
46136;SDS011;31871;49.418;8.752;2022-09-23T01:31:44;9.35;;;2.10;;
46136;SDS011;31871;49.418;8.752;2022-09-23T01:36:50;8.18;;;2.35;;
46136;SDS011;31871;49.418;8.752;2022-09-23T01:39:22;3.97;;;2.10;;
46136;SDS011;31871;49.418;8.752;2022-09-23T01:42:13;4.65;;;2.30;;
46136;SDS011;31871;49.418;8.752;2022-09-23T01:45:05;3.60;;;2.15;;
46136;SDS011;31871;49.418;8.752;2022-09-23T01:47:34;4.30;;;2.40;;
46136;SDS011;31871;49.418;8.752;2022-09-23T01:50:05;4.97;;;2.53;;
46136;SDS011;31871;49.418;8.752;2022-09-23T01:52:54;3.05;;;1.98;;
46136;SDS011;31871;49.418;8.752;2022-09-23T01:55:25;8.05;;;2.10;;
46136;SDS011;31871;49.418;8.752;2022-09-23T01:57:56;5.07;;;2.60;;
46136;SDS011;31871;49.418;8.752;2022-09-23T02:00:33;5.53;;;2.50;;
46136;SDS011;31871;49.418;8.752;2022-09-23T02:03:15;5.22;;;2.05;;
46136;SDS011;31871;49.418;8.752;2022-09-23T02:05:45;3.30;;;2.05;;
46136;SDS011;31871;49.418;8.752;2022-09-23T02:08:18;6.13;;;2.33;;
46136;SDS011;31871;49.418;8.752;2022-09-23T02:10:57;6.70;;;2.85;;
46136;SDS011;31871;49.418;8.752;2022-09-23T02:13:33;7.72;;;2.35;;
46136;SDS011;31871;49.418;8.752;2022-09-23T02:16:07;7.57;;;2.58;;
46136;SDS011;31871;49.418;8.752;2022-09-23T02:18:42;4.47;;;2.33;;
46136;SDS011;31871;49.418;8.752;2022-09-23T02:21:18;4.95;;;2.30;;
46136;SDS011;31871;49.418;8.752;2022-09-23T02:23:50;3.92;;;2.17;;
46136;SDS011;31871;49.418;8.752;2022-09-23T02:26:22;6.93;;;2.15;;
46136;SDS011;31871;49.418;8.752;2022-09-23T02:29:06;5.47;;;2.30;;
46136;SDS011;31871;49.418;8.752;2022-09-23T02:31:56;5.40;;;2.63;;
46136;SDS011;31871;49.418;8.752;2022-09-23T02:34:43;6.57;;;2.30;;
46136;SDS011;31871;49.418;8.752;2022-09-23T02:42:52;4.07;;;2.30;;
46136;SDS011;31871;49.418;8.752;2022-09-23T02:45:34;4.80;;;2.33;;
46136;SDS011;31871;49.418;8.752;2022-09-23T02:48:06;3.35;;;2.40;;
46136;SDS011;31871;49.418;8.752;2022-09-23T02:50:38;3.42;;;2.10;;
46136;SDS011;31871;49.418;8.752;2022-09-23T02:53:04;4.28;;;2.10;;
46136;SDS011;31871;49.418;8.752;2022-09-23T02:55:31;6.28;;;2.78;;
46136;SDS011;31871;49.418;8.752;2022-09-23T02:58:00;3.95;;;2.38;;
46136;SDS011;31871;49.418;8.752;2022-09-23T03:00:34;5.00;;;2.10;;
46136;SDS011;31871;49.418;8.752;2022-09-23T03:06:24;3.47;;;2.00;;
46136;SDS011;31871;49.418;8.752;2022-09-23T03:08:58;9.30;;;2.63;;
46136;SDS011;31871;49.418;8.752;2022-09-23T03:11:42;5.30;;;2.30;;
46136;SDS011;31871;49.418;8.752;2022-09-23T03:14:20;3.60;;;2.13;;
46136;SDS011;31871;49.418;8.752;2022-09-23T03:19:57;4.47;;;2.30;;
46136;SDS011;31871;49.418;8.752;2022-09-23T03:22:31;5.97;;;2.63;;
46136;SDS011;31871;49.418;8.752;2022-09-23T03:25:03;5.55;;;2.80;;
46136;SDS011;31871;49.418;8.752;2022-09-23T03:27:33;7.35;;;2.78;;
46136;SDS011;31871;49.418;8.752;2022-09-23T03:30:00;4.00;;;2.30;;
46136;SDS011;31871;49.418;8.752;2022-09-23T03:32:28;6.20;;;2.60;;
46136;SDS011;31871;49.418;8.752;2022-09-23T03:34:57;10.63;;;2.92;;
46136;SDS011;31871;49.418;8.752;2022-09-23T03:39:59;5.20;;;2.40;;
46136;SDS011;31871;49.418;8.752;2022-09-23T03:42:33;4.82;;;2.22;;
46136;SDS011;31871;49.418;8.752;2022-09-23T03:45:02;6.35;;;2.47;;
46136;SDS011;31871;49.418;8.752;2022-09-23T03:47:31;4.38;;;2.45;;
46136;SDS011;31871;49.418;8.752;2022-09-23T03:49:56;6.88;;;2.53;;
46136;SDS011;31871;49.418;8.752;2022-09-23T03:52:23;6.10;;;2.53;;
46136;SDS011;31871;49.418;8.752;2022-09-23T03:54:49;4.97;;;2.47;;
46136;SDS011;31871;49.418;8.752;2022-09-23T03:57:16;4.65;;;2.63;;
46136;SDS011;31871;49.418;8.752;2022-09-23T03:59:41;5.35;;;2.17;;
46136;SDS011;31871;49.418;8.752;2022-09-23T04:02:07;5.32;;;2.60;;
46136;SDS011;31871;49.418;8.752;2022-09-23T04:04:37;8.48;;;3.25;;
46136;SDS011;31871;49.418;8.752;2022-09-23T04:07:05;9.18;;;2.92;;
46136;SDS011;31871;49.418;8.752;2022-09-23T04:09:30;9.55;;;2.67;;
46136;SDS011;31871;49.418;8.752;2022-09-23T04:11:56;8.57;;;2.28;;
46136;SDS011;31871;49.418;8.752;2022-09-23T04:14:22;6.47;;;2.38;;
46136;SDS011;31871;49.418;8.752;2022-09-23T04:16:48;12.88;;;3.15;;
46136;SDS011;31871;49.418;8.752;2022-09-23T04:19:14;6.45;;;2.30;;
46136;SDS011;31871;49.418;8.752;2022-09-23T04:21:43;8.43;;;2.88;;
46136;SDS011;31871;49.418;8.752;2022-09-23T04:24:10;4.15;;;2.50;;
46136;SDS011;31871;49.418;8.752;2022-09-23T04:26:36;6.18;;;2.65;;
46136;SDS011;31871;49.418;8.752;2022-09-23T04:29:04;6.10;;;3.00;;
46136;SDS011;31871;49.418;8.752;2022-09-23T04:31:30;5.97;;;2.80;;
46136;SDS011;31871;49.418;8.752;2022-09-23T04:33:57;7.13;;;3.20;;
46136;SDS011;31871;49.418;8.752;2022-09-23T04:36:23;5.97;;;2.92;;
46136;SDS011;31871;49.418;8.752;2022-09-23T04:38:49;5.68;;;2.92;;
46136;SDS011;31871;49.418;8.752;2022-09-23T04:41:15;8.02;;;3.17;;
46136;SDS011;31871;49.418;8.752;2022-09-23T04:43:42;3.95;;;2.45;;
46136;SDS011;31871;49.418;8.752;2022-09-23T04:46:09;4.53;;;2.60;;
46136;SDS011;31871;49.418;8.752;2022-09-23T04:48:37;5.57;;;2.78;;
46136;SDS011;31871;49.418;8.752;2022-09-23T04:53:34;7.68;;;2.63;;
46136;SDS011;31871;49.418;8.752;2022-09-23T04:56:02;4.78;;;2.72;;
46136;SDS011;31871;49.418;8.752;2022-09-23T04:58:29;8.55;;;2.70;;
46136;SDS011;31871;49.418;8.752;2022-09-23T05:00:54;4.68;;;3.10;;
46136;SDS011;31871;49.418;8.752;2022-09-23T05:03:22;7.82;;;2.72;;
46136;SDS011;31871;49.418;8.752;2022-09-23T05:05:48;4.25;;;2.58;;
46136;SDS011;31871;49.418;8.752;2022-09-23T05:08:13;7.20;;;3.13;;
46136;SDS011;31871;49.418;8.752;2022-09-23T05:10:40;4.80;;;2.40;;
46136;SDS011;31871;49.418;8.752;2022-09-23T05:13:06;4.53;;;2.72;;
46136;SDS011;31871;49.418;8.752;2022-09-23T05:15:32;9.45;;;3.25;;
46136;SDS011;31871;49.418;8.752;2022-09-23T05:17:58;5.88;;;2.97;;
46136;SDS011;31871;49.418;8.752;2022-09-23T05:20:24;5.07;;;2.95;;
46136;SDS011;31871;49.418;8.752;2022-09-23T05:22:49;7.68;;;3.00;;
46136;SDS011;31871;49.418;8.752;2022-09-23T05:25:20;6.47;;;3.30;;
46136;SDS011;31871;49.418;8.752;2022-09-23T05:27:47;5.93;;;2.60;;
46136;SDS011;31871;49.418;8.752;2022-09-23T05:30:13;4.22;;;2.60;;
46136;SDS011;31871;49.418;8.752;2022-09-23T05:32:39;5.28;;;3.00;;
46136;SDS011;31871;49.418;8.752;2022-09-23T05:35:04;7.18;;;2.97;;
46136;SDS011;31871;49.418;8.752;2022-09-23T05:37:30;5.65;;;2.75;;
46136;SDS011;31871;49.418;8.752;2022-09-23T05:39:57;4.72;;;2.63;;
46136;SDS011;31871;49.418;8.752;2022-09-23T05:42:22;6.75;;;3.05;;
46136;SDS011;31871;49.418;8.752;2022-09-23T05:44:48;5.95;;;3.10;;
46136;SDS011;31871;49.418;8.752;2022-09-23T05:47:14;7.95;;;3.08;;
46136;SDS011;31871;49.418;8.752;2022-09-23T05:49:39;8.73;;;3.05;;
46136;SDS011;31871;49.418;8.752;2022-09-23T05:52:05;10.00;;;3.33;;
46136;SDS011;31871;49.418;8.752;2022-09-23T05:54:30;4.68;;;2.78;;
46136;SDS011;31871;49.418;8.752;2022-09-23T05:56:56;4.97;;;2.85;;
46136;SDS011;31871;49.418;8.752;2022-09-23T05:59:22;4.25;;;2.53;;
46136;SDS011;31871;49.418;8.752;2022-09-23T06:01:48;6.40;;;3.03;;
46136;SDS011;31871;49.418;8.752;2022-09-23T06:04:16;18.35;;;3.05;;
46136;SDS011;31871;49.418;8.752;2022-09-23T06:06:41;8.75;;;3.53;;
46136;SDS011;31871;49.418;8.752;2022-09-23T06:09:09;7.95;;;2.70;;
46136;SDS011;31871;49.418;8.752;2022-09-23T06:11:37;8.00;;;2.85;;
46136;SDS011;31871;49.418;8.752;2022-09-23T06:14:03;5.93;;;3.15;;
46136;SDS011;31871;49.418;8.752;2022-09-23T06:16:30;5.70;;;2.58;;
46136;SDS011;31871;49.418;8.752;2022-09-23T06:18:58;5.97;;;2.90;;
46136;SDS011;31871;49.418;8.752;2022-09-23T06:21:29;5.80;;;3.28;;
46136;SDS011;31871;49.418;8.752;2022-09-23T06:23:56;5.75;;;3.45;;
46136;SDS011;31871;49.418;8.752;2022-09-23T06:26:24;5.30;;;2.97;;
46136;SDS011;31871;49.418;8.752;2022-09-23T06:28:50;5.93;;;3.40;;
46136;SDS011;31871;49.418;8.752;2022-09-23T06:31:16;13.27;;;2.78;;
46136;SDS011;31871;49.418;8.752;2022-09-23T06:33:42;5.50;;;2.90;;
46136;SDS011;31871;49.418;8.752;2022-09-23T06:36:09;6.32;;;3.53;;
46136;SDS011;31871;49.418;8.752;2022-09-23T06:38:42;12.20;;;3.70;;
46136;SDS011;31871;49.418;8.752;2022-09-23T06:41:09;6.35;;;3.35;;
46136;SDS011;31871;49.418;8.752;2022-09-23T06:43:35;5.38;;;3.25;;
46136;SDS011;31871;49.418;8.752;2022-09-23T06:46:02;5.43;;;2.90;;
46136;SDS011;31871;49.418;8.752;2022-09-23T06:48:29;6.28;;;3.03;;
46136;SDS011;31871;49.418;8.752;2022-09-23T06:50:58;7.93;;;3.00;;
46136;SDS011;31871;49.418;8.752;2022-09-23T06:53:27;5.97;;;3.03;;
46136;SDS011;31871;49.418;8.752;2022-09-23T06:56:03;6.80;;;3.33;;
46136;SDS011;31871;49.418;8.752;2022-09-23T06:58:31;4.63;;;2.90;;
46136;SDS011;31871;49.418;8.752;2022-09-23T07:01:01;4.43;;;2.83;;
46136;SDS011;31871;49.418;8.752;2022-09-23T07:03:28;5.18;;;3.00;;
46136;SDS011;31871;49.418;8.752;2022-09-23T07:05:55;5.03;;;2.80;;
46136;SDS011;31871;49.418;8.752;2022-09-23T07:08:21;7.57;;;3.08;;
46136;SDS011;31871;49.418;8.752;2022-09-23T07:10:54;9.27;;;3.22;;
46136;SDS011;31871;49.418;8.752;2022-09-23T07:13:24;5.50;;;2.75;;
46136;SDS011;31871;49.418;8.752;2022-09-23T07:18:20;5.72;;;3.00;;
46136;SDS011;31871;49.418;8.752;2022-09-23T07:20:51;6.90;;;3.40;;
46136;SDS011;31871;49.418;8.752;2022-09-23T07:23:17;4.75;;;3.17;;
46136;SDS011;31871;49.418;8.752;2022-09-23T07:25:44;7.65;;;3.60;;
46136;SDS011;31871;49.418;8.752;2022-09-23T07:28:14;5.45;;;3.15;;
46136;SDS011;31871;49.418;8.752;2022-09-23T07:30:39;5.75;;;3.10;;
46136;SDS011;31871;49.418;8.752;2022-09-23T07:33:05;6.00;;;3.33;;
46136;SDS011;31871;49.418;8.752;2022-09-23T07:35:31;12.43;;;3.30;;
46136;SDS011;31871;49.418;8.752;2022-09-23T07:37:57;11.50;;;2.67;;
46136;SDS011;31871;49.418;8.752;2022-09-23T07:40:23;7.78;;;3.53;;
46136;SDS011;31871;49.418;8.752;2022-09-23T07:42:48;6.00;;;3.25;;
46136;SDS011;31871;49.418;8.752;2022-09-23T07:45:14;7.32;;;3.20;;
46136;SDS011;31871;49.418;8.752;2022-09-23T07:47:39;5.45;;;3.28;;
46136;SDS011;31871;49.418;8.752;2022-09-23T07:50:06;6.68;;;2.80;;
46136;SDS011;31871;49.418;8.752;2022-09-23T07:52:35;5.63;;;3.30;;
46136;SDS011;31871;49.418;8.752;2022-09-23T07:55:01;9.07;;;3.10;;
46136;SDS011;31871;49.418;8.752;2022-09-23T07:57:27;4.93;;;2.78;;
46136;SDS011;31871;49.418;8.752;2022-09-23T07:59:53;5.38;;;2.95;;
46136;SDS011;31871;49.418;8.752;2022-09-23T08:02:18;7.93;;;3.13;;
46136;SDS011;31871;49.418;8.752;2022-09-23T08:04:44;6.72;;;3.38;;
46136;SDS011;31871;49.418;8.752;2022-09-23T08:07:10;9.50;;;3.08;;
46136;SDS011;31871;49.418;8.752;2022-09-23T08:09:38;4.95;;;2.88;;
46136;SDS011;31871;49.418;8.752;2022-09-23T08:12:09;5.57;;;2.70;;
46136;SDS011;31871;49.418;8.752;2022-09-23T08:14:36;7.82;;;3.10;;
46136;SDS011;31871;49.418;8.752;2022-09-23T08:17:05;9.90;;;3.10;;
46136;SDS011;31871;49.418;8.752;2022-09-23T08:19:30;4.93;;;2.85;;
46136;SDS011;31871;49.418;8.752;2022-09-23T08:21:56;5.95;;;2.63;;
46136;SDS011;31871;49.418;8.752;2022-09-23T08:24:22;5.28;;;2.72;;
46136;SDS011;31871;49.418;8.752;2022-09-23T08:26:51;5.55;;;3.10;;
46136;SDS011;31871;49.418;8.752;2022-09-23T08:29:18;5.00;;;2.60;;
46136;SDS011;31871;49.418;8.752;2022-09-23T08:31:46;11.40;;;2.83;;
46136;SDS011;31871;49.418;8.752;2022-09-23T08:34:14;5.15;;;2.38;;
46136;SDS011;31871;49.418;8.752;2022-09-23T08:36:41;4.85;;;2.60;;
46136;SDS011;31871;49.418;8.752;2022-09-23T08:39:06;6.65;;;3.28;;
46136;SDS011;31871;49.418;8.752;2022-09-23T08:44:01;7.50;;;2.58;;
46136;SDS011;31871;49.418;8.752;2022-09-23T08:46:46;6.03;;;2.50;;
46136;SDS011;31871;49.418;8.752;2022-09-23T08:49:22;8.57;;;2.70;;
46136;SDS011;31871;49.418;8.752;2022-09-23T08:51:53;4.95;;;2.60;;
46136;SDS011;31871;49.418;8.752;2022-09-23T08:54:20;5.65;;;2.60;;
46136;SDS011;31871;49.418;8.752;2022-09-23T08:56:49;6.00;;;2.85;;
46136;SDS011;31871;49.418;8.752;2022-09-23T09:01:46;5.10;;;2.60;;
46136;SDS011;31871;49.418;8.752;2022-09-23T09:12:18;4.18;;;2.28;;
46136;SDS011;31871;49.418;8.752;2022-09-23T09:28:39;7.50;;;2.47;;
46136;SDS011;31871;49.418;8.752;2022-09-23T09:31:00;3.33;;;2.20;;
46136;SDS011;31871;49.418;8.752;2022-09-23T09:33:37;5.97;;;2.33;;
46136;SDS011;31871;49.418;8.752;2022-09-23T09:38:56;8.95;;;2.95;;
46136;SDS011;31871;49.418;8.752;2022-09-23T09:41:23;5.43;;;2.55;;
46136;SDS011;31871;49.418;8.752;2022-09-23T09:43:52;5.50;;;1.80;;
46136;SDS011;31871;49.418;8.752;2022-09-23T09:48:53;3.30;;;2.10;;
46136;SDS011;31871;49.418;8.752;2022-09-23T09:51:24;6.60;;;2.38;;
46136;SDS011;31871;49.418;8.752;2022-09-23T09:53:51;5.10;;;2.17;;
46136;SDS011;31871;49.418;8.752;2022-09-23T09:56:20;7.10;;;2.50;;
46136;SDS011;31871;49.418;8.752;2022-09-23T09:58:54;9.55;;;2.05;;
46136;SDS011;31871;49.418;8.752;2022-09-23T10:01:34;9.38;;;2.55;;
46136;SDS011;31871;49.418;8.752;2022-09-23T10:04:01;3.53;;;1.95;;
46136;SDS011;31871;49.418;8.752;2022-09-23T10:06:30;4.05;;;2.28;;
46136;SDS011;31871;49.418;8.752;2022-09-23T10:11:26;4.43;;;2.40;;
46136;SDS011;31871;49.418;8.752;2022-09-23T10:16:30;5.50;;;2.25;;
46136;SDS011;31871;49.418;8.752;2022-09-23T10:18:58;3.72;;;1.98;;
46136;SDS011;31871;49.418;8.752;2022-09-23T10:21:30;4.25;;;2.20;;
46136;SDS011;31871;49.418;8.752;2022-09-23T10:23:58;3.95;;;2.20;;
46136;SDS011;31871;49.418;8.752;2022-09-23T10:26:34;3.08;;;2.10;;
46136;SDS011;31871;49.418;8.752;2022-09-23T10:29:03;3.22;;;1.92;;
46136;SDS011;31871;49.418;8.752;2022-09-23T10:31:43;8.70;;;2.00;;
46136;SDS011;31871;49.418;8.752;2022-09-23T10:34:22;7.35;;;2.80;;
46136;SDS011;31871;49.418;8.752;2022-09-23T10:37:00;5.70;;;2.45;;
46136;SDS011;31871;49.418;8.752;2022-09-23T10:39:31;6.82;;;2.70;;
46136;SDS011;31871;49.418;8.752;2022-09-23T10:45:33;6.10;;;2.45;;
46136;SDS011;31871;49.418;8.752;2022-09-23T10:51:27;3.35;;;2.05;;
46136;SDS011;31871;49.418;8.752;2022-09-23T11:09:29;5.43;;;2.10;;
46136;SDS011;31871;49.418;8.752;2022-09-23T11:14:48;3.88;;;2.15;;
46136;SDS011;31871;49.418;8.752;2022-09-23T11:17:50;2.38;;;1.73;;
46136;SDS011;31871;49.418;8.752;2022-09-23T11:25:49;3.00;;;1.83;;
46136;SDS011;31871;49.418;8.752;2022-09-23T11:31:11;2.97;;;1.80;;
46136;SDS011;31871;49.418;8.752;2022-09-23T11:33:58;2.83;;;1.67;;
46136;SDS011;31871;49.418;8.752;2022-09-23T11:36:35;3.42;;;1.80;;
46136;SDS011;31871;49.418;8.752;2022-09-23T11:39:26;4.22;;;2.53;;
46136;SDS011;31871;49.418;8.752;2022-09-23T11:41:55;3.15;;;1.73;;
46136;SDS011;31871;49.418;8.752;2022-09-23T11:44:27;6.65;;;2.00;;
46136;SDS011;31871;49.418;8.752;2022-09-23T11:47:07;2.90;;;2.05;;
46136;SDS011;31871;49.418;8.752;2022-09-23T11:49:48;4.70;;;2.08;;
46136;SDS011;31871;49.418;8.752;2022-09-23T11:52:19;3.67;;;2.03;;
46136;SDS011;31871;49.418;8.752;2022-09-23T11:54:54;3.88;;;2.08;;
46136;SDS011;31871;49.418;8.752;2022-09-23T11:57:33;5.00;;;2.17;;
46136;SDS011;31871;49.418;8.752;2022-09-23T12:00:15;3.85;;;2.08;;
46136;SDS011;31871;49.418;8.752;2022-09-23T12:02:51;3.95;;;1.80;;
46136;SDS011;31871;49.418;8.752;2022-09-23T12:05:26;3.42;;;2.17;;
46136;SDS011;31871;49.418;8.752;2022-09-23T12:13:43;3.30;;;2.00;;
46136;SDS011;31871;49.418;8.752;2022-09-23T12:27:48;7.25;;;2.10;;
46136;SDS011;31871;49.418;8.752;2022-09-23T12:30:25;3.33;;;1.80;;
46136;SDS011;31871;49.418;8.752;2022-09-23T12:33:05;10.15;;;2.65;;
46136;SDS011;31871;49.418;8.752;2022-09-23T12:35:48;5.25;;;1.85;;
46136;SDS011;31871;49.418;8.752;2022-09-23T12:38:39;5.72;;;2.30;;
46136;SDS011;31871;49.418;8.752;2022-09-23T12:43:55;4.40;;;1.95;;
46136;SDS011;31871;49.418;8.752;2022-09-23T12:46:45;4.78;;;1.60;;
46136;SDS011;31871;49.418;8.752;2022-09-23T12:49:21;9.05;;;2.13;;
46136;SDS011;31871;49.418;8.752;2022-09-23T12:54:38;4.25;;;2.30;;
46136;SDS011;31871;49.418;8.752;2022-09-23T12:57:08;3.17;;;1.95;;
46136;SDS011;31871;49.418;8.752;2022-09-23T13:04:56;3.08;;;1.73;;
46136;SDS011;31871;49.418;8.752;2022-09-23T13:07:47;3.90;;;1.70;;
46136;SDS011;31871;49.418;8.752;2022-09-23T13:13:27;2.45;;;1.70;;
46136;SDS011;31871;49.418;8.752;2022-09-23T13:15:56;3.65;;;1.80;;
46136;SDS011;31871;49.418;8.752;2022-09-23T13:18:56;2.58;;;1.65;;
46136;SDS011;31871;49.418;8.752;2022-09-23T13:26:55;4.65;;;2.00;;
46136;SDS011;31871;49.418;8.752;2022-09-23T13:29:29;5.22;;;1.33;;
46136;SDS011;31871;49.418;8.752;2022-09-23T13:31:57;8.50;;;1.90;;
46136;SDS011;31871;49.418;8.752;2022-09-23T13:34:26;12.38;;;1.65;;
46136;SDS011;31871;49.418;8.752;2022-09-23T13:36:56;7.18;;;1.80;;
46136;SDS011;31871;49.418;8.752;2022-09-23T13:39:26;6.32;;;1.90;;
46136;SDS011;31871;49.418;8.752;2022-09-23T13:41:54;4.63;;;1.77;;
46136;SDS011;31871;49.418;8.752;2022-09-23T13:44:24;3.17;;;2.00;;
46136;SDS011;31871;49.418;8.752;2022-09-23T13:46:53;4.05;;;2.10;;
46136;SDS011;31871;49.418;8.752;2022-09-23T13:49:28;3.58;;;1.88;;
46136;SDS011;31871;49.418;8.752;2022-09-23T13:51:59;7.47;;;2.28;;
46136;SDS011;31871;49.418;8.752;2022-09-23T13:54:30;2.85;;;1.83;;
46136;SDS011;31871;49.418;8.752;2022-09-23T14:00:01;2.33;;;1.65;;
46136;SDS011;31871;49.418;8.752;2022-09-23T14:02:44;4.13;;;1.88;;
46136;SDS011;31871;49.418;8.752;2022-09-23T14:05:20;6.82;;;1.70;;
46136;SDS011;31871;49.418;8.752;2022-09-23T14:07:50;7.93;;;1.90;;
46136;SDS011;31871;49.418;8.752;2022-09-23T14:10:18;2.42;;;1.50;;
46136;SDS011;31871;49.418;8.752;2022-09-23T14:12:46;3.67;;;1.98;;
46136;SDS011;31871;49.418;8.752;2022-09-23T14:15:14;1.98;;;1.50;;
46136;SDS011;31871;49.418;8.752;2022-09-23T14:17:44;3.53;;;1.55;;
46136;SDS011;31871;49.418;8.752;2022-09-23T14:20:16;3.78;;;1.63;;
46136;SDS011;31871;49.418;8.752;2022-09-23T14:25:50;3.53;;;1.85;;
46136;SDS011;31871;49.418;8.752;2022-09-23T14:28:17;3.38;;;1.90;;
46136;SDS011;31871;49.418;8.752;2022-09-23T14:30:45;3.03;;;2.05;;
46136;SDS011;31871;49.418;8.752;2022-09-23T14:33:18;4.32;;;1.90;;
46136;SDS011;31871;49.418;8.752;2022-09-23T14:35:53;4.93;;;1.95;;
46136;SDS011;31871;49.418;8.752;2022-09-23T14:38:26;5.63;;;1.95;;
46136;SDS011;31871;49.418;8.752;2022-09-23T14:41:14;8.90;;;1.90;;
46136;SDS011;31871;49.418;8.752;2022-09-23T14:46:25;3.38;;;2.30;;
46136;SDS011;31871;49.418;8.752;2022-09-23T14:51:20;5.18;;;2.13;;
46136;SDS011;31871;49.418;8.752;2022-09-23T14:53:53;5.95;;;2.03;;
46136;SDS011;31871;49.418;8.752;2022-09-23T14:56:19;4.30;;;1.85;;
46136;SDS011;31871;49.418;8.752;2022-09-23T14:58:47;3.50;;;1.92;;
46136;SDS011;31871;49.418;8.752;2022-09-23T15:03:51;5.13;;;2.30;;
46136;SDS011;31871;49.418;8.752;2022-09-23T15:06:18;6.30;;;1.80;;
46136;SDS011;31871;49.418;8.752;2022-09-23T15:08:46;3.80;;;1.95;;
46136;SDS011;31871;49.418;8.752;2022-09-23T15:11:12;4.15;;;1.70;;
46136;SDS011;31871;49.418;8.752;2022-09-23T15:13:39;5.60;;;1.92;;
46136;SDS011;31871;49.418;8.752;2022-09-23T15:16:09;9.88;;;4.15;;
46136;SDS011;31871;49.418;8.752;2022-09-23T15:18:38;5.40;;;2.15;;
46136;SDS011;31871;49.418;8.752;2022-09-23T15:21:10;8.73;;;1.73;;
46136;SDS011;31871;49.418;8.752;2022-09-23T15:26:06;13.13;;;2.03;;
46136;SDS011;31871;49.418;8.752;2022-09-23T15:28:38;9.75;;;1.90;;
46136;SDS011;31871;49.418;8.752;2022-09-23T15:31:04;2.53;;;1.60;;
46136;SDS011;31871;49.418;8.752;2022-09-23T15:33:32;9.93;;;1.90;;
46136;SDS011;31871;49.418;8.752;2022-09-23T15:35:59;3.10;;;1.90;;
46136;SDS011;31871;49.418;8.752;2022-09-23T15:38:25;2.40;;;1.50;;
46136;SDS011;31871;49.418;8.752;2022-09-23T15:40:51;7.00;;;2.17;;
46136;SDS011;31871;49.418;8.752;2022-09-23T15:43:19;5.07;;;1.90;;
46136;SDS011;31871;49.418;8.752;2022-09-23T15:45:48;2.13;;;1.58;;
46136;SDS011;31871;49.418;8.752;2022-09-23T15:48:25;2.83;;;1.80;;
46136;SDS011;31871;49.418;8.752;2022-09-23T15:50:56;4.40;;;2.08;;
46136;SDS011;31871;49.418;8.752;2022-09-23T15:53:28;3.67;;;2.20;;
46136;SDS011;31871;49.418;8.752;2022-09-23T15:55:55;5.97;;;2.88;;
46136;SDS011;31871;49.418;8.752;2022-09-23T15:58:22;10.80;;;3.80;;
46136;SDS011;31871;49.418;8.752;2022-09-23T16:00:50;6.15;;;3.78;;
46136;SDS011;31871;49.418;8.752;2022-09-23T16:03:17;4.82;;;2.67;;
46136;SDS011;31871;49.418;8.752;2022-09-23T16:05:47;3.75;;;2.03;;
46136;SDS011;31871;49.418;8.752;2022-09-23T16:08:14;3.72;;;2.13;;
46136;SDS011;31871;49.418;8.752;2022-09-23T16:10:40;5.22;;;2.45;;
46136;SDS011;31871;49.418;8.752;2022-09-23T16:13:09;4.90;;;2.65;;
46136;SDS011;31871;49.418;8.752;2022-09-23T16:15:36;6.13;;;3.20;;
46136;SDS011;31871;49.418;8.752;2022-09-23T16:18:03;9.43;;;3.17;;
46136;SDS011;31871;49.418;8.752;2022-09-23T16:20:30;7.25;;;2.80;;
46136;SDS011;31871;49.418;8.752;2022-09-23T16:22:59;7.97;;;2.40;;
46136;SDS011;31871;49.418;8.752;2022-09-23T16:25:31;11.18;;;2.95;;
46136;SDS011;31871;49.418;8.752;2022-09-23T16:27:59;9.20;;;4.40;;
46136;SDS011;31871;49.418;8.752;2022-09-23T16:30:26;8.77;;;4.30;;
46136;SDS011;31871;49.418;8.752;2022-09-23T16:32:53;6.05;;;3.58;;
46136;SDS011;31871;49.418;8.752;2022-09-23T16:35:23;13.35;;;2.95;;
46136;SDS011;31871;49.418;8.752;2022-09-23T16:37:51;4.15;;;2.30;;
46136;SDS011;31871;49.418;8.752;2022-09-23T16:40:18;12.95;;;2.65;;
46136;SDS011;31871;49.418;8.752;2022-09-23T16:42:45;4.68;;;2.13;;
46136;SDS011;31871;49.418;8.752;2022-09-23T16:45:14;5.22;;;1.95;;
46136;SDS011;31871;49.418;8.752;2022-09-23T16:47:42;5.38;;;2.28;;
46136;SDS011;31871;49.418;8.752;2022-09-23T16:50:09;6.93;;;3.25;;
46136;SDS011;31871;49.418;8.752;2022-09-23T16:52:39;7.88;;;2.33;;
46136;SDS011;31871;49.418;8.752;2022-09-23T16:55:06;6.88;;;2.70;;
46136;SDS011;31871;49.418;8.752;2022-09-23T16:57:33;4.65;;;3.00;;
46136;SDS011;31871;49.418;8.752;2022-09-23T17:00:01;4.00;;;2.40;;
46136;SDS011;31871;49.418;8.752;2022-09-23T17:02:49;5.93;;;2.22;;
46136;SDS011;31871;49.418;8.752;2022-09-23T17:05:33;4.15;;;2.10;;
46136;SDS011;31871;49.418;8.752;2022-09-23T17:07:59;7.38;;;2.55;;
46136;SDS011;31871;49.418;8.752;2022-09-23T17:10:25;5.53;;;2.28;;
46136;SDS011;31871;49.418;8.752;2022-09-23T17:12:51;16.55;;;3.20;;
46136;SDS011;31871;49.418;8.752;2022-09-23T17:15:18;3.35;;;2.30;;
46136;SDS011;31871;49.418;8.752;2022-09-23T17:17:45;7.18;;;3.00;;
46136;SDS011;31871;49.418;8.752;2022-09-23T17:20:10;13.07;;;3.40;;
46136;SDS011;31871;49.418;8.752;2022-09-23T17:22:40;10.15;;;5.07;;
46136;SDS011;31871;49.418;8.752;2022-09-23T17:25:07;9.77;;;4.30;;
46136;SDS011;31871;49.418;8.752;2022-09-23T17:27:33;10.00;;;4.10;;
46136;SDS011;31871;49.418;8.752;2022-09-23T17:30:00;5.05;;;2.88;;
46136;SDS011;31871;49.418;8.752;2022-09-23T17:32:26;6.15;;;2.70;;
46136;SDS011;31871;49.418;8.752;2022-09-23T17:34:51;6.30;;;2.90;;
46136;SDS011;31871;49.418;8.752;2022-09-23T17:37:17;5.32;;;2.60;;
46136;SDS011;31871;49.418;8.752;2022-09-23T17:39:43;4.53;;;2.60;;
46136;SDS011;31871;49.418;8.752;2022-09-23T17:42:11;7.03;;;3.08;;
46136;SDS011;31871;49.418;8.752;2022-09-23T17:44:38;5.68;;;3.05;;
46136;SDS011;31871;49.418;8.752;2022-09-23T17:47:04;7.22;;;3.30;;
46136;SDS011;31871;49.418;8.752;2022-09-23T17:49:30;7.85;;;2.50;;